Time;durP1;ratioP1;P1;durP2;ratioP2;P2;SDS_P1;SDS_P2;PMS_P1;PMS_P2;Temp;Humidity;BMP_temperature;BMP_pressure;BME280_temperature;BME280_humidity;BME280_pressure;Samples;Min_cycle;Max_cycle;Signal;HPM_P1;HPM_P2
2023/10/30 00:02:22;;;;;;;3.80;2.10;;;24.30;57.40;;;;;;6172243;28;80891;-61
2023/10/30 00:05:22;;;;;;;2.75;1.95;;;24.30;57.30;;;;;;6162299;28;80657;-60
2023/10/30 00:08:24;;;;;;;7.00;2.53;;;24.30;57.30;;;;;;6210119;28;82061;-61
2023/10/30 00:11:24;;;;;;;3.15;2.30;;;24.30;57.30;;;;;;6213557;28;80523;-63
2023/10/30 00:14:25;;;;;;;5.00;2.47;;;24.30;57.20;;;;;;6205290;28;82330;-68
2023/10/30 00:17:25;;;;;;;5.75;2.50;;;24.30;57.30;;;;;;6223121;28;80302;-69
2023/10/30 00:20:26;;;;;;;2.80;2.00;;;24.30;57.20;;;;;;6223805;28;81538;-72
2023/10/30 00:23:28;;;;;;;3.95;2.45;;;24.30;57.20;;;;;;6223791;27;80499;-68
2023/10/30 00:26:29;;;;;;;3.50;2.30;;;24.30;57.20;;;;;;6226922;27;80512;-69
2023/10/30 00:29:30;;;;;;;4.35;2.70;;;24.30;57.20;;;;;;6209334;28;80788;-69
2023/10/30 00:32:30;;;;;;;3.50;2.30;;;24.30;57.30;;;;;;6224650;27;80308;-69
2023/10/30 00:35:31;;;;;;;4.72;2.83;;;24.30;57.20;;;;;;6224940;27;80459;-69
2023/10/30 00:38:31;;;;;;;4.68;2.70;;;24.30;57.40;;;;;;6222901;27;80518;-72
2023/10/30 00:41:32;;;;;;;3.85;2.58;;;24.30;57.40;;;;;;6224800;27;80698;-73
2023/10/30 00:44:32;;;;;;;5.55;2.65;;;24.30;57.40;;;;;;6185862;28;81767;-71
2023/10/30 00:47:38;;;;;;;3.35;2.53;;;24.30;57.30;;;;;;6163214;28;80394;-73
2023/10/30 00:50:38;;;;;;;6.80;2.88;;;24.30;57.30;;;;;;6186392;28;81982;-62
2023/10/30 00:53:39;;;;;;;4.65;3.00;;;24.30;57.20;;;;;;6174987;28;80961;-63
2023/10/30 00:56:39;;;;;;;8.05;2.72;;;24.30;57.20;;;;;;6166200;28;80809;-63
2023/10/30 00:59:40;;;;;;;4.13;2.70;;;24.30;57.20;;;;;;6189334;28;83766;-63
2023/10/30 01:02:40;;;;;;;5.82;3.25;;;24.30;57.20;;;;;;6199300;28;80366;-61
2023/10/30 01:05:41;;;;;;;3.28;2.22;;;24.30;57.20;;;;;;6167580;28;81720;-61
2023/10/30 01:08:42;;;;;;;5.57;2.45;;;24.30;57.20;;;;;;6171959;28;80375;-64
2023/10/30 01:11:42;;;;;;;4.20;2.65;;;24.30;57.30;;;;;;6183470;28;80495;-64
2023/10/30 01:14:43;;;;;;;4.13;2.65;;;24.30;57.30;;;;;;6177296;28;82304;-64
2023/10/30 01:17:43;;;;;;;5.15;2.45;;;24.30;57.30;;;;;;6187288;28;81504;-64
2023/10/30 01:20:44;;;;;;;4.85;3.20;;;24.30;57.20;;;;;;6196176;28;80500;-65
2023/10/30 01:23:44;;;;;;;3.40;2.20;;;24.30;57.40;;;;;;6192501;28;83077;-65
2023/10/30 01:26:45;;;;;;;5.38;2.53;;;24.30;57.20;;;;;;6211359;28;81959;-65
2023/10/30 01:29:45;;;;;;;3.47;2.60;;;24.30;57.20;;;;;;6212238;28;80574;-66
2023/10/30 01:32:46;;;;;;;4.25;2.50;;;24.30;57.20;;;;;;6213374;28;81715;-65
2023/10/30 01:35:46;;;;;;;6.75;2.65;;;24.30;57.20;;;;;;6179411;28;81915;-66
2023/10/30 01:38:47;;;;;;;4.75;2.67;;;24.30;57.20;;;;;;6162591;28;80412;-69
2023/10/30 01:41:48;;;;;;;3.80;2.20;;;24.30;57.20;;;;;;6175138;28;83688;-65
2023/10/30 01:44:48;;;;;;;5.10;2.45;;;24.30;57.10;;;;;;6170363;28;81040;-68
2023/10/30 01:47:49;;;;;;;4.55;2.50;;;24.30;57.30;;;;;;6173027;28;81813;-68
2023/10/30 01:50:50;;;;;;;4.57;2.72;;;24.30;57.20;;;;;;6179749;28;81079;-68
2023/10/30 01:53:50;;;;;;;3.83;2.38;;;24.30;57.20;;;;;;6193216;28;83517;-68
2023/10/30 01:56:51;;;;;;;4.10;2.40;;;24.30;57.30;;;;;;6175951;28;81153;-67
2023/10/30 01:59:51;;;;;;;3.42;2.65;;;24.30;57.20;;;;;;6222931;28;83122;-68
2023/10/30 02:02:52;;;;;;;4.50;2.33;;;24.30;57.20;;;;;;6210059;28;82118;-66
2023/10/30 02:05:52;;;;;;;3.63;2.30;;;24.30;57.10;;;;;;6209346;28;81884;-63
2023/10/30 02:08:53;;;;;;;4.38;2.25;;;24.30;57.10;;;;;;6219462;28;83072;-63
2023/10/30 02:11:55;;;;;;;4.13;2.35;;;24.30;57.10;;;;;;6206239;28;80640;-63
2023/10/30 02:14:55;;;;;;;5.65;2.60;;;24.30;57.10;;;;;;6199276;28;81045;-62
2023/10/30 02:17:56;;;;;;;3.33;2.20;;;24.30;57.00;;;;;;6151562;28;81332;-63
2023/10/30 02:20:57;;;;;;;3.45;2.30;;;24.30;56.90;;;;;;6162213;28;88049;-63
2023/10/30 02:23:57;;;;;;;4.03;2.40;;;24.30;56.80;;;;;;6183047;28;80517;-62
2023/10/30 02:26:58;;;;;;;3.17;2.20;;;24.30;56.90;;;;;;6189479;28;80389;-63
2023/10/30 02:29:59;;;;;;;4.50;2.83;;;24.30;56.90;;;;;;6159978;28;81205;-62
2023/10/30 02:32:59;;;;;;;4.82;2.35;;;24.30;56.70;;;;;;6152301;28;80472;-62
2023/10/30 02:36:00;;;;;;;4.28;2.22;;;24.20;56.70;;;;;;6167596;28;81672;-61
2023/10/30 02:39:00;;;;;;;5.00;3.13;;;24.20;56.70;;;;;;6156090;28;81957;-61
2023/10/30 02:42:01;;;;;;;3.50;2.10;;;24.20;56.70;;;;;;6166320;28;80717;-66
2023/10/30 02:45:03;;;;;;;4.00;2.20;;;24.20;56.90;;;;;;6176056;28;81236;-66
2023/10/30 02:48:05;;;;;;;3.55;2.30;;;24.20;56.90;;;;;;6175710;28;83112;-65
2023/10/30 02:51:06;;;;;;;4.97;2.75;;;24.20;56.80;;;;;;6175933;28;80805;-64
2023/10/30 02:54:06;;;;;;;4.47;2.38;;;24.20;56.80;;;;;;6177560;28;81805;-67
2023/10/30 02:57:07;;;;;;;4.78;2.95;;;24.20;56.80;;;;;;6186494;28;81802;-66
2023/10/30 03:00:07;;;;;;;3.25;2.40;;;24.20;56.90;;;;;;6175618;28;81648;-66
2023/10/30 03:03:09;;;;;;;3.67;2.53;;;24.20;56.90;;;;;;6192959;28;80511;-65
2023/10/30 03:06:11;;;;;;;7.05;2.55;;;24.20;57.00;;;;;;6199162;28;86370;-66
2023/10/30 03:09:11;;;;;;;9.48;3.03;;;24.20;57.10;;;;;;6209178;28;80676;-65
2023/10/30 03:12:12;;;;;;;4.90;2.97;;;24.20;57.00;;;;;;6196385;28;82115;-65
2023/10/30 03:15:12;;;;;;;4.10;3.13;;;24.20;57.00;;;;;;6087847;28;82449;-64
2023/10/30 03:18:13;;;;;;;4.05;2.90;;;24.20;56.70;;;;;;6034901;28;82155;-62
2023/10/30 03:21:13;;;;;;;3.88;2.40;;;24.20;57.10;;;;;;6049579;28;83263;-62
2023/10/30 03:24:14;;;;;;;11.65;3.22;;;24.20;56.90;;;;;;6047837;28;82260;-62
2023/10/30 03:27:14;;;;;;;3.40;2.28;;;24.20;56.70;;;;;;6066124;28;82176;-62
2023/10/30 03:30:16;;;;;;;5.20;3.10;;;24.20;56.90;;;;;;6070629;28;81892;-62
2023/10/30 03:33:16;;;;;;;4.55;2.65;;;24.30;57.00;;;;;;6057020;28;82387;-63
2023/10/30 03:36:17;;;;;;;5.18;2.92;;;24.20;56.90;;;;;;6056356;28;82712;-63
2023/10/30 03:39:17;;;;;;;5.75;3.00;;;24.20;56.60;;;;;;6053283;28;82021;-63
2023/10/30 03:42:19;;;;;;;5.63;2.92;;;24.30;56.60;;;;;;6047747;28;82558;-63
2023/10/30 03:45:20;;;;;;;3.67;2.90;;;24.20;56.60;;;;;;6057063;28;82496;-63
2023/10/30 03:48:20;;;;;;;6.30;3.33;;;24.20;56.70;;;;;;6038006;28;81884;-63
2023/10/30 03:51:21;;;;;;;5.53;3.58;;;24.30;56.60;;;;;;6049566;28;82398;-65
2023/10/30 03:54:22;;;;;;;4.70;2.97;;;24.30;56.60;;;;;;6052418;28;82540;-69
2023/10/30 03:57:22;;;;;;;3.90;2.67;;;24.20;56.60;;;;;;6051748;28;82181;-70
2023/10/30 04:00:23;;;;;;;5.47;2.92;;;24.20;56.60;;;;;;6068976;28;82579;-68
2023/10/30 04:03:23;;;;;;;6.40;2.97;;;24.30;56.70;;;;;;6062756;28;82303;-68
2023/10/30 04:06:24;;;;;;;5.18;2.92;;;24.20;56.50;;;;;;6059114;28;82229;-72
2023/10/30 04:09:24;;;;;;;7.65;3.22;;;24.20;56.60;;;;;;6049643;28;82367;-69
2023/10/30 04:12:25;;;;;;;7.10;3.25;;;24.20;56.50;;;;;;6036940;28;82294;-62
2023/10/30 04:15:25;;;;;;;4.25;3.40;;;24.20;56.60;;;;;;6034853;28;82947;-64
2023/10/30 04:18:26;;;;;;;5.38;2.78;;;24.20;56.80;;;;;;6051104;28;82349;-65
2023/10/30 04:21:26;;;;;;;5.55;3.13;;;24.20;56.70;;;;;;6037350;28;83033;-63
2023/10/30 04:24:27;;;;;;;4.18;2.83;;;24.20;56.50;;;;;;6056061;28;82242;-63
2023/10/30 04:27:27;;;;;;;5.93;3.10;;;24.20;56.40;;;;;;6075526;27;82086;-61
2023/10/30 04:30:28;;;;;;;5.40;3.20;;;24.20;56.50;;;;;;6075088;28;82571;-61
2023/10/30 04:33:28;;;;;;;4.78;2.90;;;24.30;56.50;;;;;;6077876;28;82463;-63
2023/10/30 04:36:29;;;;;;;3.90;2.63;;;24.30;56.40;;;;;;6064377;28;82662;-65
2023/10/30 04:39:29;;;;;;;4.65;2.90;;;24.30;56.10;;;;;;6056812;28;83062;-63
2023/10/30 04:42:30;;;;;;;5.90;2.85;;;24.30;56.10;;;;;;6075588;28;82840;-63
2023/10/30 04:45:31;;;;;;;3.92;2.78;;;24.30;56.10;;;;;;6075960;28;82324;-64
2023/10/30 04:48:31;;;;;;;7.85;3.42;;;24.40;55.90;;;;;;6151126;28;81001;-63
2023/10/30 04:51:32;;;;;;;5.90;3.03;;;24.40;55.90;;;;;;6194946;28;92399;-62
2023/10/30 04:54:32;;;;;;;6.10;3.38;;;24.40;55.80;;;;;;6194619;28;82400;-63
2023/10/30 04:57:33;;;;;;;5.97;3.67;;;24.40;55.80;;;;;;6192582;28;83445;-62
2023/10/30 05:00:35;;;;;;;5.72;3.30;;;24.40;55.30;;;;;;6168725;28;81973;-65
2023/10/30 05:03:36;;;;;;;6.45;3.38;;;24.40;55.60;;;;;;6173924;28;82162;-65
2023/10/30 05:06:36;;;;;;;4.25;2.80;;;24.40;55.60;;;;;;6188636;28;80996;-64
2023/10/30 05:09:37;;;;;;;5.70;3.63;;;24.40;55.40;;;;;;6168889;28;80352;-64
2023/10/30 05:12:37;;;;;;;4.85;2.83;;;24.40;54.90;;;;;;6162662;28;80510;-67
2023/10/30 05:15:38;;;;;;;5.43;3.38;;;24.40;54.90;;;;;;6174887;28;86832;-66
2023/10/30 05:18:38;;;;;;;6.38;3.60;;;24.40;55.50;;;;;;6200701;28;80723;-67
2023/10/30 05:21:38;;;;;;;8.35;3.60;;;24.40;55.60;;;;;;6202210;28;80527;-71
2023/10/30 05:24:39;;;;;;;3.72;2.70;;;24.40;56.10;;;;;;6170288;28;81777;-66
2023/10/30 05:27:40;;;;;;;9.85;3.30;;;24.40;55.80;;;;;;6166399;28;81013;-65
2023/10/30 05:30:40;;;;;;;7.47;3.58;;;24.40;56.20;;;;;;6166999;28;80516;-64
2023/10/30 05:33:41;;;;;;;6.88;3.03;;;24.40;56.80;;;;;;6174419;28;80575;-63
2023/10/30 05:36:41;;;;;;;5.78;2.67;;;24.40;56.70;;;;;;6179168;28;84237;-63
2023/10/30 05:39:42;;;;;;;7.25;3.72;;;24.40;56.70;;;;;;6174530;28;80811;-63
2023/10/30 05:42:42;;;;;;;4.68;2.90;;;24.40;57.00;;;;;;6168936;28;85115;-61
2023/10/30 05:45:43;;;;;;;6.25;3.80;;;24.50;57.00;;;;;;6182412;28;82680;-67
2023/10/30 05:48:44;;;;;;;6.40;3.47;;;24.50;57.20;;;;;;6182003;28;81112;-69
2023/10/30 05:51:44;;;;;;;10.10;3.35;;;24.50;57.20;;;;;;6165063;28;81282;-64
2023/10/30 05:54:45;;;;;;;9.25;3.22;;;24.50;57.10;;;;;;6177062;28;83960;-61
2023/10/30 05:57:45;;;;;;;10.45;3.70;;;24.50;57.60;;;;;;6180593;28;80621;-61
2023/10/30 06:00:46;;;;;;;20.67;3.20;;;24.50;57.90;;;;;;6176210;28;81329;-64
2023/10/30 06:03:46;;;;;;;7.18;3.47;;;24.50;58.50;;;;;;6177658;28;83721;-63
2023/10/30 06:06:47;;;;;;;10.80;4.20;;;24.50;58.90;;;;;;6163305;28;82831;-64
2023/10/30 06:09:48;;;;;;;7.63;4.38;;;24.40;55.50;;;;;;6151324;28;81232;-62
2023/10/30 06:12:48;;;;;;;10.05;4.38;;;24.20;54.40;;;;;;6185518;28;85823;-62
2023/10/30 06:15:49;;;;;;;68.10;37.28;;;24.00;53.90;;;;;;6156002;28;84350;-62
2023/10/30 06:18:49;;;;;;;125.65;69.95;;;23.80;53.40;;;;;;6184977;28;83894;-58
2023/10/30 06:21:50;;;;;;;159.90;64.30;;;23.60;53.40;;;;;;6186610;28;83077;-59
2023/10/30 06:24:51;;;;;;;141.77;52.78;;;23.50;53.30;;;;;;6168609;28;83574;-59
2023/10/30 06:27:53;;;;;;;133.48;52.70;;;23.50;54.00;;;;;;6171953;28;83519;-58
2023/10/30 06:30:53;;;;;;;98.72;34.33;;;23.60;54.80;;;;;;6180804;28;84126;-62
2023/10/30 06:33:54;;;;;;;59.63;23.00;;;23.60;54.20;;;;;;6184053;27;83749;-60
2023/10/30 06:36:55;;;;;;;54.35;20.52;;;23.50;53.50;;;;;;6096803;27;85007;-61
2023/10/30 06:39:55;;;;;;;40.00;14.40;;;23.50;53.60;;;;;;6052443;28;84518;-61
2023/10/30 06:42:56;;;;;;;34.63;12.10;;;23.30;53.40;;;;;;6185221;28;83449;-61
2023/10/30 06:45:56;;;;;;;21.85;10.57;;;23.30;53.30;;;;;;6213148;28;86215;-60
2023/10/30 06:48:57;;;;;;;20.40;8.65;;;23.20;53.30;;;;;;6200906;28;83126;-60
2023/10/30 06:51:57;;;;;;;15.93;6.95;;;23.10;53.20;;;;;;6203775;27;82022;-61
2023/10/30 06:54:58;;;;;;;15.25;5.75;;;23.10;53.30;;;;;;6160482;28;80482;-59
2023/10/30 06:57:58;;;;;;;13.52;4.72;;;23.00;53.60;;;;;;6177237;28;80417;-70
2023/10/30 07:00:59;;;;;;;9.07;3.40;;;22.80;54.00;;;;;;6174222;28;81517;-70
2023/10/30 07:04:00;;;;;;;10.75;3.40;;;22.80;54.40;;;;;;6159255;28;81903;-70
2023/10/30 07:07:00;;;;;;;6.57;3.25;;;22.70;54.70;;;;;;6169455;28;82240;-70
2023/10/30 07:10:01;;;;;;;6.38;3.33;;;22.70;54.50;;;;;;6154054;28;81478;-69
2023/10/30 07:13:01;;;;;;;5.35;3.00;;;22.80;54.80;;;;;;6174698;28;80621;-69
2023/10/30 07:16:02;;;;;;;6.88;3.42;;;22.80;54.80;;;;;;6174904;28;80605;-70
2023/10/30 07:19:02;;;;;;;6.45;2.95;;;23.00;54.90;;;;;;6195381;28;80961;-72
2023/10/30 07:22:04;;;;;;;11.02;3.45;;;23.00;54.60;;;;;;6164928;28;84279;-68
2023/10/30 07:25:05;;;;;;;5.65;2.90;;;23.10;54.60;;;;;;6165530;28;86013;-70
2023/10/30 07:28:06;;;;;;;6.15;2.90;;;23.20;54.60;;;;;;6188555;28;81133;-68
2023/10/30 07:31:07;;;;;;;6.90;2.85;;;23.30;54.70;;;;;;6174207;28;81066;-69
2023/10/30 07:34:07;;;;;;;5.97;2.80;;;23.30;54.70;;;;;;6197597;28;80744;-63
2023/10/30 07:37:08;;;;;;;6.38;3.15;;;23.40;54.90;;;;;;6185259;28;85839;-61
2023/10/30 07:40:08;;;;;;;5.13;2.65;;;23.40;54.90;;;;;;6190588;28;80809;-61
2023/10/30 07:43:09;;;;;;;5.60;2.90;;;23.50;54.60;;;;;;6159036;28;80927;-61
2023/10/30 07:46:09;;;;;;;10.23;3.95;;;23.50;54.80;;;;;;6168458;28;80816;-62
2023/10/30 07:49:10;;;;;;;10.95;4.50;;;23.50;55.20;;;;;;6153854;28;80778;-63
2023/10/30 07:52:11;;;;;;;10.23;3.80;;;23.50;55.30;;;;;;6165775;28;82348;-62
2023/10/30 07:55:11;;;;;;;11.23;4.78;;;23.60;55.20;;;;;;6169781;28;81030;-62
2023/10/30 07:58:12;;;;;;;10.77;4.65;;;23.60;54.90;;;;;;6170058;28;80514;-63
2023/10/30 08:01:13;;;;;;;21.45;6.32;;;23.60;54.70;;;;;;6171776;28;80393;-62
2023/10/30 08:04:13;;;;;;;15.77;5.72;;;23.60;54.80;;;;;;6158168;28;81319;-62
2023/10/30 08:07:14;;;;;;;12.85;5.30;;;23.60;54.70;;;;;;6159350;28;81093;-62
2023/10/30 08:10:14;;;;;;;16.67;5.85;;;23.60;54.60;;;;;;6162727;28;81178;-64
2023/10/30 08:13:15;;;;;;;11.35;6.18;;;23.60;54.50;;;;;;6162054;28;87408;-69
2023/10/30 08:16:15;;;;;;;16.55;5.82;;;23.50;54.50;;;;;;6177682;28;82198;-69
2023/10/30 08:19:16;;;;;;;15.90;6.35;;;23.60;54.50;;;;;;6158533;28;81943;-77
2023/10/30 08:22:17;;;;;;;14.60;6.65;;;23.60;54.50;;;;;;6177791;28;80400;-72
2023/10/30 08:25:17;;;;;;;16.00;6.25;;;23.60;55.10;;;;;;6151601;28;83516;-69
2023/10/30 08:28:18;;;;;;;13.80;6.70;;;23.60;54.90;;;;;;6148411;28;80746;-73
2023/10/30 08:31:18;;;;;;;14.75;6.10;;;23.60;55.00;;;;;;6156848;28;80658;-66
2023/10/30 08:34:19;;;;;;;14.57;6.43;;;23.70;54.90;;;;;;6175898;28;80436;-69
2023/10/30 08:37:19;;;;;;;17.27;6.82;;;23.70;54.90;;;;;;6155093;28;82179;-69
2023/10/30 08:40:20;;;;;;;12.38;6.78;;;23.80;54.70;;;;;;6151706;28;80756;-68
2023/10/30 08:43:20;;;;;;;18.48;6.40;;;23.80;54.60;;;;;;6181465;28;82772;-68
2023/10/30 08:46:21;;;;;;;14.73;6.65;;;23.90;54.50;;;;;;6159575;28;80280;-68
2023/10/30 08:49:21;;;;;;;16.23;7.07;;;23.90;54.20;;;;;;6182576;28;80673;-70
2023/10/30 08:52:22;;;;;;;15.65;7.35;;;23.90;54.20;;;;;;6152385;28;83486;-68
2023/10/30 08:55:22;;;;;;;19.23;7.13;;;23.90;54.30;;;;;;6146976;28;83159;-69
2023/10/30 08:58:23;;;;;;;15.70;6.63;;;23.90;54.40;;;;;;6150228;28;80562;-69
2023/10/30 09:01:23;;;;;;;13.48;5.95;;;23.80;54.50;;;;;;6182863;28;80562;-71
2023/10/30 09:04:24;;;;;;;17.30;6.38;;;23.80;54.50;;;;;;6158843;28;81151;-70
2023/10/30 09:07:24;;;;;;;14.57;6.88;;;23.80;54.60;;;;;;6167839;28;81720;-60
2023/10/30 09:10:30;;;;;;;15.60;6.95;;;23.80;54.60;;;;;;6162773;28;80624;-61
2023/10/30 09:13:31;;;;;;;17.00;6.27;;;23.80;54.80;;;;;;6151964;28;81173;-61
2023/10/30 09:16:31;;;;;;;11.82;5.25;;;23.80;54.90;;;;;;6165885;28;80543;-61
2023/10/30 09:19:32;;;;;;;12.38;6.03;;;23.80;55.10;;;;;;6176945;28;85713;-61
2023/10/30 09:22:33;;;;;;;14.18;5.75;;;23.80;55.20;;;;;;6169503;28;85521;-62
2023/10/30 09:25:33;;;;;;;11.95;6.22;;;23.80;55.30;;;;;;6147718;28;82825;-67
2023/10/30 09:28:34;;;;;;;12.38;5.43;;;23.80;55.30;;;;;;6191981;28;81144;-67
2023/10/30 09:31:34;;;;;;;11.82;5.38;;;23.80;55.50;;;;;;6190897;28;80445;-66
2023/10/30 09:34:35;;;;;;;13.82;5.32;;;23.80;55.70;;;;;;6207776;28;81693;-68
2023/10/30 09:37:37;;;;;;;9.23;5.05;;;23.70;55.80;;;;;;6191535;28;80996;-66
2023/10/30 09:40:38;;;;;;;14.10;5.97;;;23.80;56.00;;;;;;6166929;28;80502;-65
2023/10/30 09:43:38;;;;;;;13.95;6.40;;;23.80;56.10;;;;;;6202759;28;82689;-67
2023/10/30 09:46:41;;;;;;;10.55;5.63;;;23.80;56.20;;;;;;6162849;28;80851;-68
2023/10/30 09:49:42;;;;;;;17.38;6.05;;;23.80;56.10;;;;;;6159118;28;83447;-66
2023/10/30 09:52:43;;;;;;;16.75;6.05;;;23.80;56.30;;;;;;6197860;28;80430;-68
2023/10/30 09:55:43;;;;;;;13.73;5.38;;;23.80;56.30;;;;;;6187070;28;83572;-67
2023/10/30 09:58:44;;;;;;;13.90;5.93;;;23.80;56.40;;;;;;6192115;28;80300;-69
2023/10/30 10:01:44;;;;;;;21.08;6.28;;;23.80;56.50;;;;;;6198593;28;80581;-64
2023/10/30 10:04:45;;;;;;;17.48;6.32;;;23.90;57.30;;;;;;6189605;28;82389;-60
2023/10/30 10:07:46;;;;;;;13.25;5.50;;;23.90;60.20;;;;;;6156842;28;80273;-60
2023/10/30 10:10:46;;;;;;;22.35;6.32;;;23.90;59.60;;;;;;6159249;28;85560;-60
2023/10/30 10:13:48;;;;;;;13.35;5.85;;;23.90;59.80;;;;;;6190569;28;81042;-60
2023/10/30 10:16:49;;;;;;;21.15;6.32;;;23.90;60.00;;;;;;6194683;28;80478;-61
2023/10/30 10:19:50;;;;;;;13.48;5.80;;;23.90;61.50;;;;;;6152763;28;84082;-63
2023/10/30 10:22:51;;;;;;;11.43;4.93;;;23.90;63.30;;;;;;6190108;28;84132;-61
2023/10/30 10:25:51;;;;;;;15.00;4.93;;;23.80;64.00;;;;;;6162370;28;85627;-60
2023/10/30 10:28:52;;;;;;;13.10;4.70;;;23.80;65.40;;;;;;6173393;28;85264;-61
2023/10/30 10:31:52;;;;;;;8.55;4.30;;;23.80;64.70;;;;;;6164802;28;88169;-63
2023/10/30 10:34:54;;;;;;;14.52;4.45;;;23.80;64.30;;;;;;6166372;28;85152;-62
2023/10/30 10:37:54;;;;;;;14.30;5.18;;;23.80;62.40;;;;;;6193531;28;81760;-61
2023/10/30 10:40:55;;;;;;;9.95;4.40;;;23.80;62.60;;;;;;6187754;28;81097;-63
2023/10/30 10:43:56;;;;;;;9.10;4.50;;;23.80;62.80;;;;;;6142777;28;81231;-62
2023/10/30 10:46:59;;;;;;;10.60;4.63;;;23.80;63.10;;;;;;6188446;28;82994;-62
2023/10/30 10:49:59;;;;;;;16.42;4.55;;;23.90;62.70;;;;;;6190038;28;84007;-64
2023/10/30 10:53:00;;;;;;;10.65;4.13;;;23.90;62.40;;;;;;6189297;28;82897;-64
2023/10/30 10:56:04;;;;;;;10.07;5.10;;;24.00;62.80;;;;;;6168672;28;82953;-63
2023/10/30 10:59:05;;;;;;;26.42;5.82;;;24.10;63.80;;;;;;6156534;28;81340;-65
2023/10/30 11:02:06;;;;;;;17.48;6.00;;;24.10;61.60;;;;;;6169854;28;81586;-65
2023/10/30 11:05:06;;;;;;;13.38;5.78;;;24.20;62.10;;;;;;6173085;28;83440;-63
2023/10/30 11:08:07;;;;;;;8.23;4.38;;;24.30;62.40;;;;;;6176685;28;81358;-62
2023/10/30 11:11:07;;;;;;;12.43;5.15;;;24.40;61.70;;;;;;6201368;28;81121;-64
2023/10/30 11:14:08;;;;;;;11.48;4.70;;;24.40;62.10;;;;;;6182523;28;81068;-63
2023/10/30 11:17:09;;;;;;;12.30;4.55;;;24.50;62.60;;;;;;6200072;28;80875;-60
2023/10/30 11:20:10;;;;;;;12.27;4.50;;;24.60;62.50;;;;;;6168865;28;80392;-61
2023/10/30 11:23:10;;;;;;;9.85;4.47;;;24.70;62.40;;;;;;6196318;28;81367;-61
2023/10/30 11:26:10;;;;;;;7.60;3.92;;;24.70;62.40;;;;;;6208611;27;80829;-62
2023/10/30 11:29:11;;;;;;;11.43;4.57;;;24.70;62.80;;;;;;6201501;28;83934;-61
2023/10/30 11:32:12;;;;;;;10.88;4.65;;;24.60;62.70;;;;;;6196412;27;80492;-61
2023/10/30 11:35:13;;;;;;;9.57;4.43;;;24.60;62.60;;;;;;6194540;28;81204;-66
2023/10/30 11:38:15;;;;;;;8.85;4.15;;;24.70;62.70;;;;;;6202673;28;80459;-67
2023/10/30 11:41:16;;;;;;;9.30;4.57;;;24.70;62.00;;;;;;6189649;28;80089;-68
2023/10/30 11:44:17;;;;;;;10.10;4.35;;;24.90;62.00;;;;;;6168380;28;80468;-67
2023/10/30 11:47:17;;;;;;;11.20;4.00;;;25.00;61.80;;;;;;6185549;28;83424;-65
2023/10/30 11:50:18;;;;;;;10.90;4.85;;;25.10;61.70;;;;;;6169515;28;80745;-66
2023/10/30 11:53:19;;;;;;;7.70;3.75;;;25.20;61.60;;;;;;6190881;28;80168;-60
2023/10/30 11:56:20;;;;;;;10.52;4.30;;;25.30;60.90;;;;;;6186685;28;80648;-60
2023/10/30 11:59:21;;;;;;;9.45;4.53;;;25.40;60.40;;;;;;6183449;28;83611;-60
2023/10/30 12:02:21;;;;;;;9.25;4.15;;;25.50;60.80;;;;;;6153638;28;82749;-60
2023/10/30 12:05:22;;;;;;;9.93;4.20;;;25.60;61.60;;;;;;6162508;28;85456;-59
2023/10/30 12:08:22;;;;;;;10.48;4.22;;;25.60;63.60;;;;;;6194601;27;80901;-59
2023/10/30 12:11:23;;;;;;;7.53;3.58;;;25.70;62.60;;;;;;6194695;28;89181;-63
2023/10/30 12:14:24;;;;;;;13.82;4.57;;;25.70;61.90;;;;;;6192343;28;80333;-63
2023/10/30 12:17:24;;;;;;;6.57;3.38;;;25.70;62.00;;;;;;6197751;28;80468;-63
2023/10/30 12:20:25;;;;;;;11.32;3.55;;;25.70;62.00;;;;;;6169748;28;81457;-63
2023/10/30 12:23:25;;;;;;;9.63;3.70;;;25.70;62.20;;;;;;6173054;28;82742;-63
2023/10/30 12:26:27;;;;;;;9.05;3.80;;;25.70;61.40;;;;;;6177954;28;81010;-64
2023/10/30 12:29:28;;;;;;;7.07;3.65;;;25.70;61.40;;;;;;6174406;28;84561;-62
2023/10/30 12:32:29;;;;;;;6.28;2.92;;;25.70;61.30;;;;;;6176398;28;81146;-61
2023/10/30 12:35:29;;;;;;;9.02;3.70;;;25.70;61.20;;;;;;6196737;28;80610;-61
2023/10/30 12:38:30;;;;;;;10.45;3.72;;;25.70;60.30;;;;;;6178997;28;80311;-60
2023/10/30 12:41:30;;;;;;;10.63;2.50;;;25.80;62.30;;;;;;6171574;28;85368;-61
2023/10/30 12:44:31;;;;;;;8.35;3.30;;;25.80;62.00;;;;;;6177059;28;80531;-62
2023/10/30 12:47:32;;;;;;;5.75;2.95;;;25.80;60.30;;;;;;6178029;28;80857;-64
2023/10/30 12:50:32;;;;;;;9.02;3.42;;;25.90;61.20;;;;;;6179452;28;80616;-64
2023/10/30 12:53:34;;;;;;;9.40;3.72;;;25.80;61.00;;;;;;6178806;28;80564;-64
2023/10/30 12:56:35;;;;;;;6.70;3.03;;;25.80;61.70;;;;;;6178830;28;82225;-64
2023/10/30 12:59:35;;;;;;;5.68;2.65;;;25.80;61.70;;;;;;6180535;28;80627;-63
2023/10/30 13:02:36;;;;;;;12.80;3.38;;;25.80;61.80;;;;;;6179046;28;81727;-63
2023/10/30 13:05:36;;;;;;;6.47;2.97;;;25.80;61.40;;;;;;6155289;28;81943;-60
2023/10/30 13:08:37;;;;;;;7.80;2.97;;;25.80;61.00;;;;;;6156192;28;84018;-61
2023/10/30 13:11:37;;;;;;;6.00;3.10;;;25.80;61.30;;;;;;6164900;28;80590;-60
2023/10/30 13:14:38;;;;;;;8.50;2.72;;;25.80;61.40;;;;;;6170746;28;80651;-61
2023/10/30 13:17:40;;;;;;;13.93;3.35;;;25.70;61.40;;;;;;6163221;28;80486;-60
2023/10/30 13:20:40;;;;;;;14.43;4.40;;;25.70;60.80;;;;;;6176333;28;83890;-62
2023/10/30 13:23:41;;;;;;;12.30;4.90;;;25.80;59.80;;;;;;6168936;28;80905;-66
2023/10/30 13:26:41;;;;;;;11.52;3.80;;;25.90;58.10;;;;;;6168864;28;80514;-66
2023/10/30 13:29:42;;;;;;;10.07;3.38;;;25.90;57.30;;;;;;6174848;28;81477;-67
2023/10/30 13:32:42;;;;;;;6.72;2.95;;;25.90;57.40;;;;;;6194569;28;80862;-67
2023/10/30 13:35:43;;;;;;;9.70;3.10;;;25.80;57.30;;;;;;6212669;27;80363;-68
2023/10/30 13:38:44;;;;;;;11.40;3.33;;;25.80;57.00;;;;;;6192004;28;80346;-67
2023/10/30 13:41:45;;;;;;;10.43;3.05;;;25.80;57.20;;;;;;6180228;28;80267;-60
2023/10/30 13:44:45;;;;;;;11.75;3.33;;;25.70;56.90;;;;;;6198844;28;80469;-66
2023/10/30 13:47:46;;;;;;;8.30;3.33;;;25.70;56.70;;;;;;6173458;28;82936;-67
2023/10/30 13:50:46;;;;;;;10.32;2.58;;;25.70;56.10;;;;;;6173154;28;80378;-67
2023/10/30 13:53:49;;;;;;;7.00;2.95;;;25.70;55.70;;;;;;6178559;28;80601;-66
2023/10/30 13:56:50;;;;;;;7.18;2.65;;;25.70;55.40;;;;;;6177626;28;80103;-67
2023/10/30 13:59:51;;;;;;;5.78;3.00;;;25.70;55.40;;;;;;6161184;28;85279;-67
2023/10/30 14:02:51;;;;;;;6.90;2.55;;;25.70;54.80;;;;;;6172077;28;80359;-67
2023/10/30 14:05:52;;;;;;;4.63;2.35;;;25.70;54.10;;;;;;6171893;28;80535;-68
2023/10/30 14:08:53;;;;;;;8.50;2.20;;;25.70;53.90;;;;;;6167644;28;80959;-66
2023/10/30 14:11:53;;;;;;;3.97;2.30;;;25.70;54.00;;;;;;6177193;28;80415;-68
2023/10/30 14:14:54;;;;;;;7.15;2.67;;;25.70;54.00;;;;;;6186029;27;80425;-69
2023/10/30 14:17:55;;;;;;;6.03;2.63;;;25.70;53.70;;;;;;6180211;28;82242;-69
2023/10/30 14:20:55;;;;;;;4.63;2.15;;;25.70;53.40;;;;;;6176145;28;80082;-63
2023/10/30 14:23:55;;;;;;;5.72;1.85;;;25.60;53.10;;;;;;6175790;28;80144;-63
2023/10/30 14:26:56;;;;;;;10.70;3.08;;;25.60;53.10;;;;;;6186079;28;81567;-62
2023/10/30 14:29:56;;;;;;;12.50;2.95;;;25.50;53.20;;;;;;6173059;28;83362;-62
2023/10/30 14:32:57;;;;;;;7.97;2.25;;;25.40;53.40;;;;;;6194575;28;81308;-65
2023/10/30 14:35:57;;;;;;;8.40;1.67;;;25.30;53.20;;;;;;6201529;28;80190;-63
2023/10/30 14:38:59;;;;;;;11.27;2.03;;;25.30;53.50;;;;;;6193337;28;80552;-59
2023/10/30 14:42:00;;;;;;;11.50;2.33;;;25.20;53.60;;;;;;6183449;28;80647;-60
2023/10/30 14:45:00;;;;;;;3.92;1.80;;;25.10;54.00;;;;;;6213332;28;80787;-60
2023/10/30 14:48:01;;;;;;;5.95;1.80;;;24.90;54.10;;;;;;6204549;27;80323;-61
2023/10/30 14:51:03;;;;;;;4.35;1.80;;;24.70;54.50;;;;;;6204577;27;80471;-62
2023/10/30 14:54:03;;;;;;;7.15;2.72;;;24.50;54.70;;;;;;6181157;28;82744;-60
2023/10/30 14:57:04;;;;;;;8.60;2.25;;;24.30;54.80;;;;;;6207840;28;80946;-61
2023/10/30 15:00:06;;;;;;;5.88;2.63;;;24.10;55.40;;;;;;6180003;28;81127;-60
2023/10/30 15:03:06;;;;;;;6.70;2.70;;;23.80;55.50;;;;;;6186941;28;80475;-59
2023/10/30 15:06:07;;;;;;;7.85;2.92;;;23.70;55.90;;;;;;6215962;27;80756;-60
2023/10/30 15:09:10;;;;;;;8.82;3.22;;;23.50;56.00;;;;;;6211350;27;80591;-59
2023/10/30 15:12:10;;;;;;;10.20;2.67;;;23.30;55.80;;;;;;6204729;28;82560;-60
2023/10/30 15:15:11;;;;;;;8.00;2.65;;;23.30;56.20;;;;;;6195600;28;81410;-64
2023/10/30 15:18:11;;;;;;;4.32;2.45;;;23.10;56.60;;;;;;6187927;28;81754;-64
2023/10/30 15:21:12;;;;;;;5.38;2.10;;;23.00;56.90;;;;;;6175888;28;81501;-64
2023/10/30 15:24:12;;;;;;;8.90;2.47;;;22.90;57.40;;;;;;6186375;28;80225;-64
2023/10/30 15:27:17;;;;;;;3.92;1.98;;;22.80;57.30;;;;;;6175064;28;84527;-65
2023/10/30 15:30:17;;;;;;;6.22;2.30;;;22.80;57.40;;;;;;6207869;28;80546;-65
2023/10/30 15:33:20;;;;;;;6.38;1.63;;;22.70;57.90;;;;;;6203077;28;81388;-66
2023/10/30 15:36:21;;;;;;;5.63;2.13;;;22.60;57.90;;;;;;6200834;28;81161;-64